Time;durP1;ratioP1;P1;durP2;ratioP2;P2;SDS_P1;SDS_P2;PMS_P1;PMS_P2;Temp;Humidity;BMP_temperature;BMP_pressure;BME280_temperature;BME280_humidity;BME280_pressure;Samples;Min_cycle;Max_cycle;Signal;HPM_P1;HPM_P2
2022/09/27 00:00:06;;;;;;;0.90;0.90;;;;;;;11.14;84.14;98388.31;5115277;28;20550;-68
2022/09/27 00:02:39;;;;;;;0.75;0.75;;;;;;;11.08;84.61;98388.47;5115549;28;20058;-68
2022/09/27 00:05:10;;;;;;;0.97;0.90;;;;;;;11.05;84.58;98379.16;5115653;28;20089;-67
2022/09/27 00:07:38;;;;;;;1.00;0.90;;;;;;;11.01;84.76;98379.28;5115423;28;20071;-67
2022/09/27 00:10:08;;;;;;;0.43;0.43;;;;;;;10.98;84.67;98374.22;5115647;28;20036;-67
2022/09/27 00:12:37;;;;;;;;;;;;;;;11.02;84.75;98373.28;5115952;28;20050;-68
2022/09/27 00:15:08;;;;;;;0.90;0.90;;;;;;;11.02;85.21;98371.56;5115216;28;19919;-68
2022/09/27 00:17:38;;;;;;;2.28;2.08;;;;;;;11.09;85.18;98372.25;5115170;28;20052;-67
2022/09/27 00:20:09;;;;;;;1.38;1.27;;;;;;;11.11;85.33;98373.88;5115328;28;20043;-68
2022/09/27 00:22:38;;;;;;;1.05;0.95;;;;;;;11.20;85.46;98362.63;5115353;28;20400;-68
2022/09/27 00:25:07;;;;;;;0.88;0.88;;;;;;;11.28;85.62;98363.25;5114933;28;20036;-67
2022/09/27 00:27:36;;;;;;;1.05;0.98;;;;;;;11.30;85.59;98358.97;5114698;28;20496;-67
2022/09/27 00:30:05;;;;;;;1.48;1.38;;;;;;;11.34;85.80;98350.34;5114973;28;20043;-67
2022/09/27 00:32:34;;;;;;;1.13;0.85;;;;;;;11.38;85.80;98347.69;5115469;28;20576;-67
2022/09/27 00:35:04;;;;;;;0.80;0.60;;;;;;;11.42;85.85;98338.25;5113895;28;20039;-67
2022/09/27 00:37:34;;;;;;;2.28;1.85;;;;;;;11.42;85.67;98330.56;5115054;28;20043;-67
2022/09/27 00:40:03;;;;;;;0.65;0.60;;;;;;;11.38;85.80;98336.63;5113627;28;20036;-67
2022/09/27 00:42:31;;;;;;;0.85;0.80;;;;;;;11.34;85.56;98324.81;5114714;28;20050;-67
2022/09/27 00:45:12;;;;;;;6.03;1.60;;;;;;;11.37;85.86;98325.56;5113708;28;20036;-67
2022/09/27 00:47:49;;;;;;;0.98;0.90;;;;;;;11.35;85.62;98323.91;5114987;28;20048;-67
2022/09/27 00:50:28;;;;;;;6.28;2.13;;;;;;;11.37;85.91;98323.00;5114595;28;20044;-68
2022/09/27 00:53:10;;;;;;;0.43;0.43;;;;;;;11.42;85.71;98328.03;5113422;28;20048;-67
2022/09/27 00:55:43;;;;;;;0.63;0.63;;;;;;;11.43;85.54;98315.19;5114761;28;20443;-67
2022/09/27 00:58:16;;;;;;;0.65;0.65;;;;;;;11.43;85.72;98306.69;5114199;28;20058;-67
2022/09/27 01:00:49;;;;;;;1.38;1.27;;;;;;;11.48;85.72;98302.31;5114602;28;20122;-67
2022/09/27 01:03:26;;;;;;;0.60;0.60;;;;;;;11.49;85.83;98303.16;5113233;28;20044;-67
2022/09/27 01:05:55;;;;;;;0.65;0.65;;;;;;;11.47;85.95;98310.84;5113096;28;20051;-67
2022/09/27 01:08:25;;;;;;;1.20;1.10;;;;;;;11.47;85.77;98303.16;5114607;28;20036;-67
2022/09/27 01:11:13;;;;;;;0.70;0.70;;;;;;;11.43;85.70;98297.31;5114348;28;20485;-67
2022/09/27 01:13:56;;;;;;;0.75;0.75;;;;;;;11.47;85.94;98292.94;5114222;28;20043;-67
2022/09/27 01:16:36;;;;;;;0.77;0.77;;;;;;;11.48;85.92;98284.41;5114136;28;20130;-67
2022/09/27 01:19:12;;;;;;;;;;;;;;;11.51;85.86;98281.78;5113312;28;20050;-67
2022/09/27 01:21:51;;;;;;;0.52;0.52;;;;;;;11.51;85.90;98276.69;5114386;28;20290;-67
2022/09/27 01:24:53;;;;;;;0.70;0.70;;;;;;;11.53;85.94;98277.47;5113271;28;20052;-67
2022/09/27 01:27:50;;;;;;;0.60;0.60;;;;;;;11.52;85.82;98273.22;5113178;28;20489;-67
2022/09/27 01:30:26;;;;;;;1.05;0.95;;;;;;;11.46;85.84;98275.97;5112859;28;20130;-67
2022/09/27 01:33:10;;;;;;;2.47;1.50;;;;;;;11.46;85.64;98283.63;5114072;28;20058;-67
2022/09/27 01:35:51;;;;;;;1.30;1.20;;;;;;;11.47;85.75;98269.94;5114249;28;20378;-67
2022/09/27 01:38:26;;;;;;;1.38;1.27;;;;;;;11.50;85.74;98264.78;5114369;28;20043;-67
2022/09/27 01:41:04;;;;;;;0.70;0.70;;;;;;;11.49;85.82;98258.00;5116977;28;20043;-67
2022/09/27 01:43:49;;;;;;;1.15;1.05;;;;;;;11.53;85.74;98259.59;5118448;28;20409;-67
2022/09/27 01:46:30;;;;;;;1.10;0.90;;;;;;;11.53;85.83;98258.75;5118458;28;20047;-67
2022/09/27 01:49:16;;;;;;;1.27;1.02;;;;;;;11.54;85.77;98250.22;5118090;28;20075;-67
2022/09/27 01:51:49;;;;;;;0.80;0.80;;;;;;;11.54;85.81;98240.81;5117997;28;20524;-66
2022/09/27 01:54:25;;;;;;;0.60;0.60;;;;;;;11.54;85.58;98245.91;5117959;28;20062;-69
2022/09/27 01:57:09;;;;;;;1.15;1.05;;;;;;;11.48;85.51;98241.00;5117865;28;20043;-68
2022/09/27 01:59:45;;;;;;;1.40;1.27;;;;;;;11.48;85.67;98243.53;5116450;28;20047;-68
2022/09/27 02:02:41;;;;;;;1.30;1.20;;;;;;;11.46;85.95;98242.75;5117710;28;20062;-67
2022/09/27 02:05:35;;;;;;;1.23;1.13;;;;;;;11.47;85.65;98238.50;5106275;28;20436;-68
2022/09/27 02:08:28;;;;;;;0.75;0.75;;;;;;;11.47;86.00;98234.19;5118022;28;20039;-68
2022/09/27 02:11:05;;;;;;;1.15;0.90;;;;;;;11.46;85.83;98229.97;5117657;28;20042;-68
2022/09/27 02:13:40;;;;;;;1.13;1.05;;;;;;;11.48;85.92;98225.66;5116434;28;20047;-68
2022/09/27 02:16:43;;;;;;;1.40;1.30;;;;;;;11.49;85.99;98221.41;5117136;28;20050;-68
2022/09/27 02:19:21;;;;;;;1.45;1.35;;;;;;;11.48;85.89;98220.56;5117487;28;20056;-68
2022/09/27 02:22:01;;;;;;;1.40;1.30;;;;;;;11.54;85.88;98212.69;5116296;28;20047;-67
2022/09/27 02:24:37;;;;;;;0.80;0.70;;;;;;;11.51;85.92;98209.41;5116564;28;20075;-68
2022/09/27 02:27:15;;;;;;;0.95;0.75;;;;;;;11.52;85.97;98199.13;5116513;28;20392;-66
2022/09/27 02:29:49;;;;;;;1.02;0.93;;;;;;;11.52;86.01;98201.69;5116064;28;20044;-68
2022/09/27 02:32:19;;;;;;;0.93;0.93;;;;;;;11.53;86.09;98197.41;5116103;28;20052;-67
2022/09/27 02:34:50;;;;;;;0.60;0.60;;;;;;;11.52;86.31;98196.59;5116048;28;20039;-68
2022/09/27 02:37:19;;;;;;;1.50;1.33;;;;;;;11.49;86.06;98191.59;5116256;28;20126;-67
2022/09/27 02:39:49;;;;;;;1.55;1.10;;;;;;;11.51;86.17;98189.81;5116078;28;20135;-67
2022/09/27 02:42:18;;;;;;;2.30;1.60;;;;;;;11.49;85.89;98189.03;5115911;28;20130;-68
2022/09/27 02:44:46;;;;;;;1.10;0.80;;;;;;;11.49;86.09;98191.59;5115848;28;20036;-68
2022/09/27 02:47:38;;;;;;;3.40;1.87;;;;;;;11.50;85.94;98192.38;5115744;28;20063;-68
2022/09/27 02:50:36;;;;;;;1.65;1.38;;;;;;;11.49;85.86;98194.13;5117078;28;20441;-67
2022/09/27 02:53:30;;;;;;;2.30;1.50;;;;;;;11.50;86.07;98188.13;5117137;28;20485;-68
2022/09/27 02:56:13;;;;;;;1.52;1.35;;;;;;;11.50;85.85;98185.56;5116809;28;20048;-68
2022/09/27 02:59:05;;;;;;;1.55;1.40;;;;;;;11.50;86.03;98177.91;5116514;28;20511;-67
2022/09/27 03:02:04;;;;;;;2.45;2.25;;;;;;;11.50;85.81;98183.03;5115356;28;20052;-68
2022/09/27 03:05:07;;;;;;;1.67;1.58;;;;;;;11.45;85.70;98180.59;5116277;28;20171;-67
2022/09/27 03:07:37;;;;;;;1.30;1.20;;;;;;;11.41;85.71;98183.28;5116958;28;20071;-68
2022/09/27 03:10:07;;;;;;;0.52;0.52;;;;;;;11.39;85.48;98175.69;5115221;28;20044;-68
2022/09/27 03:12:36;;;;;;;0.63;0.63;;;;;;;11.37;85.80;98181.72;5115599;28;20081;-68
2022/09/27 03:15:05;;;;;;;1.23;1.10;;;;;;;11.37;85.92;98184.25;5116695;28;20040;-67
2022/09/27 03:17:45;;;;;;;0.52;0.52;;;;;;;11.36;85.61;98180.03;5116377;28;20051;-68
2022/09/27 03:20:20;;;;;;;1.27;1.17;;;;;;;11.37;85.64;98181.72;5116511;28;20047;-67
2022/09/27 03:22:55;;;;;;;0.65;0.65;;;;;;;11.36;85.92;98185.13;5116282;28;20097;-68
2022/09/27 03:25:25;;;;;;;2.25;1.52;;;;;;;11.33;85.88;98167.31;5115004;28;20437;-67
2022/09/27 03:27:54;;;;;;;1.20;1.10;;;;;;;11.35;85.87;98168.13;5114967;28;20497;-67
2022/09/27 03:30:23;;;;;;;1.10;1.00;;;;;;;11.36;85.94;98164.69;5114911;28;20062;-67
2022/09/27 03:32:52;;;;;;;1.35;1.25;;;;;;;11.36;85.70;98165.53;5114924;28;20055;-68
2022/09/27 03:35:31;;;;;;;3.03;1.20;;;;;;;11.36;85.80;98174.91;5116059;28;20044;-67
2022/09/27 03:38:02;;;;;;;1.08;1.00;;;;;;;11.38;85.84;98168.03;5114727;28;20051;-67
2022/09/27 03:40:31;;;;;;;0.90;0.85;;;;;;;11.37;85.83;98151.06;5114980;28;20040;-68
2022/09/27 03:43:00;;;;;;;1.77;1.63;;;;;;;11.37;86.01;98153.63;5114584;28;20040;-68
2022/09/27 03:45:31;;;;;;;1.42;1.05;;;;;;;11.35;85.68;98157.91;5114643;28;20048;-67
2022/09/27 03:48:03;;;;;;;0.70;0.70;;;;;;;11.34;85.89;98157.09;5116095;28;20048;-68
2022/09/27 03:50:32;;;;;;;1.00;0.93;;;;;;;11.34;85.86;98162.19;5114796;28;20514;-68
2022/09/27 03:53:02;;;;;;;2.17;1.40;;;;;;;11.35;85.91;98155.34;5115890;28;20405;-68
2022/09/27 03:55:31;;;;;;;1.38;1.10;;;;;;;11.36;85.87;98149.38;5114458;28;20052;-67
2022/09/27 03:58:00;;;;;;;2.03;1.88;;;;;;;11.35;86.11;98143.41;5115544;28;20043;-68
2022/09/27 04:00:31;;;;;;;3.00;2.45;;;;;;;11.35;85.74;98150.25;5114074;28;20066;-67
2022/09/27 04:03:01;;;;;;;7.13;2.13;;;;;;;11.27;85.80;98155.59;5115413;28;20079;-67
2022/09/27 04:05:53;;;;;;;2.33;1.95;;;;;;;11.29;85.98;98147.88;5114271;28;20044;-68
2022/09/27 04:08:31;;;;;;;4.80;2.90;;;;;;;11.28;86.04;98143.63;5114177;28;20044;-68
2022/09/27 04:11:00;;;;;;;1.98;1.73;;;;;;;11.25;86.01;98143.75;5114547;28;20039;-68
2022/09/27 04:13:29;;;;;;;3.92;2.03;;;;;;;11.22;86.01;98141.25;5114384;28;20089;-68
2022/09/27 04:15:57;;;;;;;3.00;1.55;;;;;;;11.19;86.17;98137.06;5115482;28;20533;-68
2022/09/27 04:18:37;;;;;;;1.05;1.02;;;;;;;11.18;86.03;98139.69;5115221;27;20500;-67
2022/09/27 04:21:16;;;;;;;0.90;0.90;;;;;;;11.15;86.25;98130.41;5114996;28;20047;-68
2022/09/27 04:23:52;;;;;;;1.30;1.20;;;;;;;11.19;86.25;98131.13;5115244;28;20043;-68
2022/09/27 04:26:24;;;;;;;1.48;1.35;;;;;;;11.19;86.38;98128.56;5115395;28;20047;-67
2022/09/27 04:29:03;;;;;;;1.83;1.70;;;;;;;11.17;86.28;98127.78;5115312;28;20514;-67
2022/09/27 04:31:38;;;;;;;0.98;0.98;;;;;;;11.15;86.21;98124.44;5115533;28;20378;-67
2022/09/27 04:37:14;;;;;;;0.63;0.63;;;;;;;11.22;86.68;98131.06;5113924;28;20059;-68
2022/09/27 04:39:48;;;;;;;0.43;0.43;;;;;;;11.24;86.44;98131.84;5115247;28;20047;-68
2022/09/27 04:42:18;;;;;;;0.80;0.80;;;;;;;11.27;86.63;98129.22;5113363;28;20516;-68
2022/09/27 04:44:47;;;;;;;0.90;0.85;;;;;;;11.29;86.51;98138.50;5113654;28;20494;-67
2022/09/27 04:47:17;;;;;;;0.82;0.82;;;;;;;11.30;86.49;98139.34;5114616;28;20044;-68
2022/09/27 04:49:46;;;;;;;0.65;0.65;;;;;;;11.33;86.49;98144.34;5113364;28;20051;-68
2022/09/27 04:52:15;;;;;;;1.73;1.47;;;;;;;11.34;86.55;98140.91;5113330;28;20043;-68
2022/09/27 04:54:44;;;;;;;1.35;1.25;;;;;;;11.33;86.78;98140.06;5113176;28;20128;-68
2022/09/27 04:57:15;;;;;;;0.60;0.60;;;;;;;11.34;86.61;98133.25;5114747;28;20547;-68
2022/09/27 04:59:44;;;;;;;0.90;0.82;;;;;;;11.38;86.66;98134.84;5113057;28;20048;-67
2022/09/27 05:02:14;;;;;;;1.20;1.10;;;;;;;11.43;86.44;98131.28;5113398;28;20443;-68
2022/09/27 05:04:58;;;;;;;0.70;0.68;;;;;;;11.44;86.54;98132.13;5114323;28;20048;-67
2022/09/27 05:07:35;;;;;;;0.40;0.40;;;;;;;11.48;86.52;98138.81;5114354;28;20489;-68
2022/09/27 05:10:09;;;;;;;1.92;1.27;;;;;;;11.48;86.45;98125.19;5114399;28;20164;-67
2022/09/27 05:12:40;;;;;;;0.80;0.80;;;;;;;11.50;86.57;98125.97;5112197;28;20055;-67
2022/09/27 05:15:12;;;;;;;2.00;1.45;;;;;;;11.50;86.48;98115.75;5114078;28;20043;-67
2022/09/27 05:17:53;;;;;;;5.80;2.25;;;;;;;11.52;86.59;98114.81;5114345;28;20043;-67
2022/09/27 05:20:33;;;;;;;1.17;1.08;;;;;;;11.52;86.38;98109.72;5114187;28;20036;-68
2022/09/27 05:23:24;;;;;;;1.38;1.30;;;;;;;11.54;86.29;98112.25;5113796;28;20405;-68
2022/09/27 05:25:54;;;;;;;0.97;0.87;;;;;;;11.55;86.18;98108.78;5112876;28;20506;-67
2022/09/27 05:28:25;;;;;;;1.45;1.27;;;;;;;11.57;86.24;98102.75;5114036;28;20051;-67
2022/09/27 05:30:54;;;;;;;2.28;1.30;;;;;;;11.59;86.19;98095.88;5112836;28;20052;-70
2022/09/27 05:33:23;;;;;;;1.25;1.08;;;;;;;11.62;86.13;98095.78;5113086;28;20044;-66
2022/09/27 05:36:03;;;;;;;;;;;;;;;11.66;86.28;98083.78;5114649;28;20048;-66
2022/09/27 05:38:32;;;;;;;0.98;0.90;;;;;;;11.68;86.16;98080.31;5112752;28;20010;-66
2022/09/27 05:41:02;;;;;;;1.60;0.70;;;;;;;11.70;86.10;98083.66;5112704;28;20043;-67
2022/09/27 05:43:36;;;;;;;1.10;1.00;;;;;;;11.76;86.10;98082.63;5114185;28;20047;-67
2022/09/27 05:46:05;;;;;;;1.10;1.00;;;;;;;11.81;86.09;98076.47;5113859;28;20485;-67
2022/09/27 05:48:35;;;;;;;0.90;0.82;;;;;;;11.83;85.83;98067.03;5112644;28;20051;-67
2022/09/27 05:51:07;;;;;;;2.53;1.08;;;;;;;11.87;85.87;98080.56;5113762;28;20485;-67
2022/09/27 05:53:39;;;;;;;0.45;0.45;;;;;;;11.89;85.95;98069.41;5114112;28;20047;-67
2022/09/27 05:56:17;;;;;;;1.90;1.35;;;;;;;11.92;85.91;98064.22;5112582;28;20044;-66
2022/09/27 05:59:07;;;;;;;3.25;1.90;;;;;;;11.99;85.87;98055.47;5109505;28;20497;-66
2022/09/27 06:01:56;;;;;;;0.88;0.82;;;;;;;12.02;85.74;98055.34;5112951;28;20043;-67
2022/09/27 06:04:52;;;;;;;0.90;0.90;;;;;;;12.07;85.58;98058.59;5110408;28;20122;-67
2022/09/27 06:07:31;;;;;;;0.70;0.70;;;;;;;12.13;85.84;98059.28;5113534;28;20052;-67
2022/09/27 06:10:02;;;;;;;1.58;1.17;;;;;;;12.22;85.70;98062.34;5112421;28;20093;-66
2022/09/27 06:12:31;;;;;;;1.23;0.98;;;;;;;12.25;85.45;98058.88;5112402;28;20043;-67
2022/09/27 06:15:02;;;;;;;0.85;0.85;;;;;;;12.29;85.49;98057.88;5112273;28;20051;-66
2022/09/27 06:17:36;;;;;;;1.45;1.35;;;;;;;12.31;85.42;98056.94;5114015;28;20051;-66
2022/09/27 06:20:13;;;;;;;1.42;1.10;;;;;;;12.34;85.30;98056.00;5113540;28;20515;-66
2022/09/27 06:22:42;;;;;;;0.98;0.90;;;;;;;12.33;85.42;98060.31;5112065;28;20039;-65
2022/09/27 06:25:10;;;;;;;0.47;0.47;;;;;;;12.35;85.41;98057.69;5115421;28;20036;-66
2022/09/27 06:27:49;;;;;;;1.15;0.90;;;;;;;12.38;85.24;98058.38;5117538;27;20496;-67
2022/09/27 06:30:29;;;;;;;0.77;0.77;;;;;;;12.44;85.50;98062.47;5117245;28;20048;-67
2022/09/27 06:33:00;;;;;;;3.47;1.50;;;;;;;12.49;84.96;98065.72;5117157;28;20063;-68
2022/09/27 06:35:37;;;;;;;1.52;0.93;;;;;;;12.53;85.08;98057.03;5117508;28;20051;-65
2022/09/27 06:38:09;;;;;;;1.25;1.15;;;;;;;12.54;84.98;98056.16;5117015;28;20043;-67
2022/09/27 06:40:44;;;;;;;0.70;0.68;;;;;;;12.57;85.11;98049.19;5117258;28;20047;-67
2022/09/27 06:43:32;;;;;;;0.98;0.93;;;;;;;12.63;84.73;98043.03;5117039;27;20040;-67
2022/09/27 06:46:16;;;;;;;1.15;1.05;;;;;;;12.72;84.53;98052.94;5116821;28;20047;-67
2022/09/27 06:48:55;;;;;;;;;;;;;;;12.75;84.44;98051.13;5117555;28;20546;-67
2022/09/27 06:51:26;;;;;;;0.90;0.90;;;;;;;12.81;84.35;98047.53;5116757;28;19920;-67
2022/09/27 06:53:54;;;;;;;0.65;0.65;;;;;;;12.86;84.55;98044.78;5115871;28;20036;-67
2022/09/27 06:56:23;;;;;;;2.75;1.70;;;;;;;12.92;84.22;98050.50;5115515;28;20088;-66
2022/09/27 07:01:44;;;;;;;1.25;1.15;;;;;;;13.07;84.22;98047.44;5116620;28;20055;-64
2022/09/27 07:04:25;;;;;;;0.50;0.50;;;;;;;13.10;84.02;98042.16;5116557;28;20066;-66
2022/09/27 07:07:05;;;;;;;4.72;1.50;;;;;;;13.12;83.64;98042.13;5116800;28;20047;-66
2022/09/27 07:09:44;;;;;;;4.35;1.88;;;;;;;13.21;83.83;98041.78;5098643;28;20378;-66
2022/09/27 07:12:13;;;;;;;1.13;0.70;;;;;;;13.20;83.47;98038.38;5115540;28;20035;-66
2022/09/27 07:14:43;;;;;;;0.85;0.82;;;;;;;13.22;83.48;98043.47;5116376;28;20100;-66
2022/09/27 07:17:16;;;;;;;0.85;0.85;;;;;;;13.25;83.24;98039.06;5116225;28;20074;-66
2022/09/27 07:19:47;;;;;;;0.88;0.88;;;;;;;13.35;83.31;98031.84;5116064;28;20081;-66
2022/09/27 07:22:16;;;;;;;1.88;1.48;;;;;;;13.42;83.29;98036.69;5114944;28;20040;-66
2022/09/27 07:24:47;;;;;;;1.20;1.10;;;;;;;13.52;83.01;98031.19;5115286;28;20051;-67
2022/09/27 07:27:17;;;;;;;0.70;0.52;;;;;;;13.58;83.09;98036.09;5116475;28;20063;-66
2022/09/27 07:29:46;;;;;;;1.08;0.77;;;;;;;13.66;82.76;98028.91;5116079;28;20043;-67
2022/09/27 07:32:16;;;;;;;1.17;1.00;;;;;;;13.71;82.33;98038.09;5114447;28;20446;-67
2022/09/27 07:34:48;;;;;;;1.48;1.10;;;;;;;13.76;82.53;98035.34;5115345;28;20055;-67
2022/09/27 07:37:16;;;;;;;0.73;0.68;;;;;;;13.73;82.33;98038.03;5114738;28;20058;-67
2022/09/27 07:39:47;;;;;;;2.78;1.10;;;;;;;13.72;82.03;98038.94;5114328;28;20043;-67
2022/09/27 07:42:16;;;;;;;0.90;0.90;;;;;;;13.75;82.50;98038.84;5115616;28;20048;-67
2022/09/27 07:44:49;;;;;;;1.05;1.02;;;;;;;13.76;82.17;98030.22;5116167;28;20051;-67
2022/09/27 07:47:30;;;;;;;1.38;1.27;;;;;;;13.81;82.68;98028.31;5114727;28;20043;-67
2022/09/27 07:50:10;;;;;;;0.63;0.63;;;;;;;13.88;82.31;98024.59;5115729;28;20043;-67
2022/09/27 07:52:53;;;;;;;1.30;1.15;;;;;;;13.92;82.29;98021.00;5115631;28;20048;-66
2022/09/27 07:55:27;;;;;;;2.35;2.15;;;;;;;14.03;82.33;98026.56;5115639;28;20055;-67
2022/09/27 07:58:04;;;;;;;8.20;1.42;;;;;;;14.06;82.59;98023.84;5114249;28;20095;-68
2022/09/27 08:00:33;;;;;;;1.00;0.90;;;;;;;14.01;82.52;98021.47;5115520;28;20127;-67
2022/09/27 08:03:10;;;;;;;1.55;1.20;;;;;;;14.06;82.80;98028.97;5115372;28;20067;-67
2022/09/27 08:05:39;;;;;;;1.13;1.00;;;;;;;14.06;82.84;98029.81;5115306;28;20059;-67
2022/09/27 08:08:08;;;;;;;1.10;0.80;;;;;;;14.05;82.74;98027.31;5114559;28;20047;-66
2022/09/27 08:10:42;;;;;;;0.93;0.75;;;;;;;14.00;83.21;98029.25;5114005;28;20272;-66
2022/09/27 08:13:12;;;;;;;0.68;0.68;;;;;;;13.99;82.68;98025.00;5115538;28;20122;-66
2022/09/27 08:15:42;;;;;;;1.67;1.52;;;;;;;14.02;82.86;98022.31;5115912;28;20215;-66
2022/09/27 08:18:12;;;;;;;1.13;1.00;;;;;;;14.02;83.10;98024.88;5114241;28;20531;-66
2022/09/27 08:20:51;;;;;;;2.05;1.70;;;;;;;14.05;83.65;98032.47;5115184;28;20043;-66
2022/09/27 08:23:30;;;;;;;1.40;0.75;;;;;;;14.02;83.13;98027.44;5115410;28;20042;-66
2022/09/27 08:26:09;;;;;;;0.52;0.52;;;;;;;14.05;83.59;98017.06;5114988;28;20520;-67
2022/09/27 08:28:52;;;;;;;1.10;1.02;;;;;;;14.08;83.81;98006.69;5114082;28;20059;-67
2022/09/27 08:31:25;;;;;;;1.50;1.40;;;;;;;14.11;84.21;98020.19;5114925;28;20067;-67
2022/09/27 08:33:58;;;;;;;2.75;1.75;;;;;;;14.11;83.80;98009.94;5115242;28;20047;-67
2022/09/27 08:36:27;;;;;;;1.55;1.45;;;;;;;14.07;84.19;98005.00;5113779;28;20366;-69
2022/09/27 08:38:58;;;;;;;0.80;0.65;;;;;;;14.06;84.12;98013.59;5113896;28;20100;-69
2022/09/27 08:41:38;;;;;;;1.00;0.90;;;;;;;13.98;84.80;97992.56;5113803;28;20075;-70
2022/09/27 08:44:20;;;;;;;1.30;1.20;;;;;;;14.02;84.80;98006.91;5113420;28;20040;-70
2022/09/27 08:47:17;;;;;;;2.67;1.65;;;;;;;13.99;85.49;97997.63;5111413;28;20438;-69
2022/09/27 08:49:53;;;;;;;7.03;2.17;;;;;;;13.98;85.74;98005.38;5114555;28;20047;-69
2022/09/27 08:52:27;;;;;;;1.08;0.98;;;;;;;13.97;86.48;97998.59;5114512;28;20043;-69
2022/09/27 08:55:01;;;;;;;2.55;1.73;;;;;;;13.96;86.51;98000.31;5113313;28;20039;-70
2022/09/27 08:57:30;;;;;;;1.80;1.17;;;;;;;13.97;86.95;98003.72;5113231;28;20056;-70
2022/09/27 09:00:05;;;;;;;1.25;1.15;;;;;;;13.95;87.15;97997.81;5113208;28;20130;-69
2022/09/27 09:02:36;;;;;;;1.17;0.95;;;;;;;13.95;87.29;98002.94;5114614;28;20039;-69
2022/09/27 09:05:13;;;;;;;3.20;2.35;;;;;;;13.94;87.71;97999.53;5113355;28;20439;-70
2022/09/27 09:08:02;;;;;;;1.23;1.13;;;;;;;13.97;87.77;97996.00;5114542;28;20100;-69
2022/09/27 09:13:41;;;;;;;2.15;1.95;;;;;;;14.00;88.19;97993.34;5114532;28;20048;-69
2022/09/27 09:16:26;;;;;;;1.58;1.48;;;;;;;14.01;88.95;97995.00;5112943;28;20071;-69
2022/09/27 09:19:12;;;;;;;2.33;1.42;;;;;;;14.04;89.38;97994.88;5114458;28;20051;-69
2022/09/27 09:22:06;;;;;;;3.40;1.50;;;;;;;14.02;89.32;98001.78;5114205;28;20520;-69
2022/09/27 09:24:47;;;;;;;1.95;1.38;;;;;;;13.99;89.71;98004.47;5112782;28;20074;-69
2022/09/27 09:27:25;;;;;;;1.23;1.15;;;;;;;13.97;89.69;97998.59;5114112;28;20052;-69
2022/09/27 09:30:05;;;;;;;1.83;1.52;;;;;;;13.99;89.54;98001.91;5113117;28;20085;-69
2022/09/27 09:32:53;;;;;;;1.80;1.42;;;;;;;13.97;90.17;98003.72;5113849;28;20040;-67
2022/09/27 09:35:26;;;;;;;3.10;1.42;;;;;;;13.98;90.36;98000.25;5114271;28;20447;-68
2022/09/27 09:38:00;;;;;;;2.38;1.63;;;;;;;13.96;90.55;97979.78;5114230;28;20449;-67
2022/09/27 09:40:37;;;;;;;1.00;1.00;;;;;;;13.98;90.32;97980.59;5112776;28;20043;-68
2022/09/27 09:43:20;;;;;;;1.77;1.67;;;;;;;13.99;90.50;97986.53;5112998;28;20047;-68
2022/09/27 09:45:58;;;;;;;1.38;1.27;;;;;;;13.97;91.10;97984.03;5113872;28;20116;-67
2022/09/27 09:48:33;;;;;;;1.33;1.23;;;;;;;14.03;91.16;97972.69;5112728;28;20048;-67
2022/09/27 09:51:09;;;;;;;1.65;1.55;;;;;;;14.11;90.88;97960.34;5113224;28;20542;-67
2022/09/27 09:53:46;;;;;;;1.48;1.23;;;;;;;14.17;91.61;97959.28;5112968;28;20124;-67
2022/09/27 09:56:24;;;;;;;2.50;2.25;;;;;;;14.22;91.60;97968.44;5113694;28;20042;-67
2022/09/27 09:58:58;;;;;;;6.45;2.95;;;;;;;14.29;91.44;97959.59;5113213;28;20130;-67
2022/09/27 10:01:38;;;;;;;1.70;1.60;;;;;;;14.39;91.49;97952.34;5117908;28;20054;-66
2022/09/27 10:04:14;;;;;;;3.20;2.08;;;;;;;14.43;91.98;97961.56;5116550;28;20036;-66
2022/09/27 10:06:44;;;;;;;2.80;2.50;;;;;;;14.46;91.67;97951.19;5117021;28;20116;-66
2022/09/27 10:09:16;;;;;;;2.47;1.10;;;;;;;14.44;91.85;97953.81;5116461;28;20040;-67
2022/09/27 10:12:05;;;;;;;1.95;1.23;;;;;;;14.39;92.19;97940.38;5117428;28;20047;-66
2022/09/27 10:14:36;;;;;;;1.60;1.13;;;;;;;14.46;91.64;97946.88;5117989;28;20039;-66
2022/09/27 10:17:13;;;;;;;1.98;1.70;;;;;;;14.47;92.07;97943.41;5117613;28;20051;-66
2022/09/27 10:19:43;;;;;;;1.50;1.40;;;;;;;14.48;92.19;97942.50;5116326;28;20050;-67
2022/09/27 10:22:18;;;;;;;3.88;2.90;;;;;;;14.48;92.05;97939.94;5117406;28;20054;-67
2022/09/27 10:24:58;;;;;;;0.68;0.68;;;;;;;14.48;92.02;97934.81;5117437;28;20096;-67
2022/09/27 10:27:42;;;;;;;1.85;1.48;;;;;;;14.51;91.88;97933.84;5118230;28;20097;-66
2022/09/27 10:30:25;;;;;;;2.58;1.27;;;;;;;14.53;92.13;97938.00;5116376;28;20047;-66
2022/09/27 10:32:58;;;;;;;1.35;1.05;;;;;;;14.55;92.38;97936.19;5117821;28;20062;-67
2022/09/27 10:35:42;;;;;;;1.02;0.93;;;;;;;14.55;91.92;97930.22;5112364;28;20409;-67
2022/09/27 10:38:25;;;;;;;1.55;1.45;;;;;;;14.54;92.15;97929.38;5097748;28;20055;-67
2022/09/27 10:41:23;;;;;;;1.27;1.17;;;;;;;14.49;92.00;97928.75;5097030;28;20044;-66
2022/09/27 10:44:19;;;;;;;;;;;;;;;14.40;92.05;97926.59;5097012;28;20048;-67
2022/09/27 10:46:55;;;;;;;3.03;1.70;;;;;;;14.41;91.90;97924.88;5097563;28;19920;-67
2022/09/27 10:49:37;;;;;;;0.75;0.70;;;;;;;14.33;91.99;97925.22;5096592;28;20063;-67
2022/09/27 10:52:16;;;;;;;;;;;;;;;14.31;91.81;97932.16;5097214;28;20055;-66
2022/09/27 10:54:55;;;;;;;4.10;1.65;;;;;;;14.31;92.14;97932.16;5096333;28;20374;-66
2022/09/27 10:57:28;;;;;;;9.13;2.30;;;;;;;14.29;91.98;97928.78;5096853;28;20485;-66
2022/09/27 11:00:03;;;;;;;0.70;0.70;;;;;;;14.27;91.74;97925.47;5096187;28;20044;-66
2022/09/27 11:02:35;;;;;;;0.85;0.85;;;;;;;14.26;91.82;97922.94;5096860;28;20421;-66
2022/09/27 11:05:12;;;;;;;1.55;1.05;;;;;;;14.21;92.27;97923.16;5096857;28;20052;-67
2022/09/27 11:07:51;;;;;;;0.70;0.70;;;;;;;14.19;92.14;97906.16;5096343;28;20117;-67
2022/09/27 11:10:27;;;;;;;0.88;0.88;;;;;;;14.19;92.20;97907.00;5094821;28;20044;-67
2022/09/27 11:13:07;;;;;;;;;;;;;;;14.15;92.10;97910.59;5095604;28;20081;-66
2022/09/27 11:15:47;;;;;;;1.08;1.00;;;;;;;14.16;92.53;97896.84;5094838;28;19920;-67
2022/09/27 11:18:27;;;;;;;1.15;0.75;;;;;;;14.17;92.74;97895.97;5095080;28;20486;-67
2022/09/27 11:21:07;;;;;;;0.60;0.60;;;;;;;14.19;92.31;97888.19;5094930;28;20044;-66
2022/09/27 11:23:42;;;;;;;;;;;;;;;14.25;92.51;97891.34;5095390;28;20134;-67
2022/09/27 11:26:31;;;;;;;1.17;1.08;;;;;;;14.30;92.79;97897.13;5096121;28;19970;-66
2022/09/27 11:29:18;;;;;;;1.45;1.15;;;;;;;14.28;92.76;97896.31;5096114;28;20051;-66
2022/09/27 11:32:16;;;;;;;1.90;1.33;;;;;;;14.30;93.12;97914.25;5096025;28;20043;-66
2022/09/27 11:35:01;;;;;;;0.98;0.88;;;;;;;14.30;92.54;97920.22;5094835;28;20075;-66
2022/09/27 11:37:43;;;;;;;1.13;1.02;;;;;;;14.29;92.64;97923.66;5094560;28;20056;-66
2022/09/27 11:40:22;;;;;;;1.10;1.00;;;;;;;14.06;92.40;97926.38;5094390;28;20058;-66
2022/09/27 11:43:29;;;;;;;0.30;0.30;;;;;;;13.69;92.52;97928.81;5094537;28;20066;-65
2022/09/27 11:46:08;;;;;;;0.43;0.43;;;;;;;13.54;91.97;97926.88;5095394;28;20051;-66
2022/09/27 11:49:18;;;;;;;0.57;0.57;;;;;;;13.47;92.16;97925.47;5094415;28;20439;-66
2022/09/27 11:52:06;;;;;;;0.40;0.40;;;;;;;13.33;91.64;97923.47;5094143;28;20093;-66
2022/09/27 11:54:48;;;;;;;0.30;0.30;;;;;;;13.20;91.40;97915.44;5094113;28;20047;-66
2022/09/27 11:57:25;;;;;;;0.28;0.28;;;;;;;13.16;90.82;97916.44;5094107;28;20127;-67
2022/09/27 12:00:19;;;;;;;0.30;0.30;;;;;;;13.18;90.92;97922.34;5095215;28;20493;-66
2022/09/27 12:03:41;;;;;;;0.25;0.25;;;;;;;13.21;90.31;97913.69;5095072;28;20072;-67
2022/09/27 12:06:18;;;;;;;0.20;0.20;;;;;;;13.21;89.83;97922.22;5094931;28;20040;-67
2022/09/27 12:09:02;;;;;;;0.65;0.65;;;;;;;13.19;89.77;97918.91;5095324;28;20072;-66
2022/09/27 12:11:39;;;;;;;0.40;0.40;;;;;;;13.25;89.60;97921.19;5095251;28;20068;-66
2022/09/27 12:14:18;;;;;;;0.30;0.30;;;;;;;13.36;89.59;97924.16;5095709;28;20040;-67
2022/09/27 12:16:56;;;;;;;0.20;0.20;;;;;;;13.38;88.79;97922.41;5093718;28;20044;-66
2022/09/27 12:19:30;;;;;;;0.50;0.50;;;;;;;13.37;89.26;97928.41;5094815;28;20576;-66
2022/09/27 12:22:30;;;;;;;0.25;0.25;;;;;;;13.43;88.67;97935.03;5077945;28;20490;-66
2022/09/27 12:25:26;;;;;;;0.52;0.52;;;;;;;13.44;88.23;97940.06;5093211;28;20048;-67
2022/09/27 12:28:18;;;;;;;0.22;0.22;;;;;;;13.49;87.88;97939.03;5094546;28;20062;-66